sensor_id;sensor_type;location;lat;lon;timestamp;P1;durP1;ratioP1;P2;durP2;ratioP2
21018;SDS011;10667;51.056;3.732;2023-09-30T00:01:08;16.67;;;7.80;;
21018;SDS011;10667;51.056;3.732;2023-09-30T00:03:35;12.80;;;6.85;;
21018;SDS011;10667;51.056;3.732;2023-09-30T00:06:01;14.85;;;8.15;;
21018;SDS011;10667;51.056;3.732;2023-09-30T00:08:26;10.35;;;7.15;;
21018;SDS011;10667;51.056;3.732;2023-09-30T00:10:52;14.57;;;7.75;;
21018;SDS011;10667;51.056;3.732;2023-09-30T00:13:19;16.85;;;7.50;;
21018;SDS011;10667;51.056;3.732;2023-09-30T00:15:45;15.73;;;7.88;;
21018;SDS011;10667;51.056;3.732;2023-09-30T00:18:11;15.13;;;7.85;;
21018;SDS011;10667;51.056;3.732;2023-09-30T00:20:38;20.38;;;8.13;;
21018;SDS011;10667;51.056;3.732;2023-09-30T00:23:04;16.45;;;7.68;;
21018;SDS011;10667;51.056;3.732;2023-09-30T00:25:31;19.08;;;7.80;;
21018;SDS011;10667;51.056;3.732;2023-09-30T00:27:57;18.60;;;7.20;;
21018;SDS011;10667;51.056;3.732;2023-09-30T00:30:23;18.45;;;8.30;;
21018;SDS011;10667;51.056;3.732;2023-09-30T00:32:49;17.13;;;7.60;;
21018;SDS011;10667;51.056;3.732;2023-09-30T00:35:14;14.85;;;7.40;;
21018;SDS011;10667;51.056;3.732;2023-09-30T00:37:41;13.40;;;8.70;;
21018;SDS011;10667;51.056;3.732;2023-09-30T00:40:07;13.52;;;7.38;;
21018;SDS011;10667;51.056;3.732;2023-09-30T00:42:40;13.93;;;6.90;;
21018;SDS011;10667;51.056;3.732;2023-09-30T00:45:06;17.48;;;8.35;;
21018;SDS011;10667;51.056;3.732;2023-09-30T00:47:34;14.70;;;7.68;;
21018;SDS011;10667;51.056;3.732;2023-09-30T00:50:00;16.25;;;7.13;;
21018;SDS011;10667;51.056;3.732;2023-09-30T00:52:28;15.65;;;7.20;;
21018;SDS011;10667;51.056;3.732;2023-09-30T00:54:56;16.92;;;7.47;;
21018;SDS011;10667;51.056;3.732;2023-09-30T00:57:22;15.35;;;7.53;;
21018;SDS011;10667;51.056;3.732;2023-09-30T00:59:49;14.70;;;7.35;;
21018;SDS011;10667;51.056;3.732;2023-09-30T01:02:16;16.75;;;8.07;;
21018;SDS011;10667;51.056;3.732;2023-09-30T01:04:43;20.13;;;7.47;;
21018;SDS011;10667;51.056;3.732;2023-09-30T01:07:09;17.25;;;8.23;;
21018;SDS011;10667;51.056;3.732;2023-09-30T01:09:36;22.00;;;7.70;;
21018;SDS011;10667;51.056;3.732;2023-09-30T01:12:02;15.68;;;7.35;;
21018;SDS011;10667;51.056;3.732;2023-09-30T01:14:29;13.98;;;7.82;;
21018;SDS011;10667;51.056;3.732;2023-09-30T01:16:56;22.52;;;7.40;;
21018;SDS011;10667;51.056;3.732;2023-09-30T01:19:22;16.95;;;7.40;;
21018;SDS011;10667;51.056;3.732;2023-09-30T01:21:52;14.50;;;7.05;;
21018;SDS011;10667;51.056;3.732;2023-09-30T01:24:29;19.40;;;8.02;;
21018;SDS011;10667;51.056;3.732;2023-09-30T01:26:55;16.13;;;7.53;;
21018;SDS011;10667;51.056;3.732;2023-09-30T01:29:21;18.65;;;7.63;;
21018;SDS011;10667;51.056;3.732;2023-09-30T01:31:47;17.60;;;7.45;;
21018;SDS011;10667;51.056;3.732;2023-09-30T01:34:14;15.93;;;7.38;;
21018;SDS011;10667;51.056;3.732;2023-09-30T01:36:41;18.02;;;7.45;;
21018;SDS011;10667;51.056;3.732;2023-09-30T01:39:08;17.95;;;7.60;;
21018;SDS011;10667;51.056;3.732;2023-09-30T01:41:35;17.33;;;7.93;;
21018;SDS011;10667;51.056;3.732;2023-09-30T01:44:02;15.82;;;7.20;;
21018;SDS011;10667;51.056;3.732;2023-09-30T01:46:28;16.23;;;7.72;;
21018;SDS011;10667;51.056;3.732;2023-09-30T01:48:53;18.50;;;7.03;;
21018;SDS011;10667;51.056;3.732;2023-09-30T01:51:19;21.58;;;8.30;;
21018;SDS011;10667;51.056;3.732;2023-09-30T01:53:44;13.35;;;7.03;;
21018;SDS011;10667;51.056;3.732;2023-09-30T01:56:10;17.70;;;7.53;;
21018;SDS011;10667;51.056;3.732;2023-09-30T01:58:36;13.60;;;6.63;;
21018;SDS011;10667;51.056;3.732;2023-09-30T02:01:02;17.75;;;7.70;;
21018;SDS011;10667;51.056;3.732;2023-09-30T02:03:28;23.40;;;7.95;;
21018;SDS011;10667;51.056;3.732;2023-09-30T02:05:54;18.75;;;7.38;;
21018;SDS011;10667;51.056;3.732;2023-09-30T02:08:20;21.00;;;8.27;;
21018;SDS011;10667;51.056;3.732;2023-09-30T02:10:47;20.90;;;8.15;;
21018;SDS011;10667;51.056;3.732;2023-09-30T02:13:13;20.60;;;8.70;;
21018;SDS011;10667;51.056;3.732;2023-09-30T02:15:42;20.00;;;7.28;;
21018;SDS011;10667;51.056;3.732;2023-09-30T02:18:08;17.42;;;7.38;;
21018;SDS011;10667;51.056;3.732;2023-09-30T02:20:34;22.23;;;8.20;;
21018;SDS011;10667;51.056;3.732;2023-09-30T02:23:08;16.98;;;7.53;;
21018;SDS011;10667;51.056;3.732;2023-09-30T02:25:38;17.95;;;7.75;;
21018;SDS011;10667;51.056;3.732;2023-09-30T02:28:07;17.38;;;7.38;;
21018;SDS011;10667;51.056;3.732;2023-09-30T02:30:32;21.23;;;8.10;;
21018;SDS011;10667;51.056;3.732;2023-09-30T02:32:58;17.67;;;7.32;;
21018;SDS011;10667;51.056;3.732;2023-09-30T02:35:24;17.98;;;7.47;;
21018;SDS011;10667;51.056;3.732;2023-09-30T02:37:51;18.27;;;8.20;;
21018;SDS011;10667;51.056;3.732;2023-09-30T02:40:17;19.25;;;7.72;;
21018;SDS011;10667;51.056;3.732;2023-09-30T02:42:43;15.13;;;7.57;;
21018;SDS011;10667;51.056;3.732;2023-09-30T02:45:10;22.90;;;7.85;;
21018;SDS011;10667;51.056;3.732;2023-09-30T02:47:37;25.92;;;8.52;;
21018;SDS011;10667;51.056;3.732;2023-09-30T02:50:05;25.40;;;8.18;;
21018;SDS011;10667;51.056;3.732;2023-09-30T02:52:33;17.52;;;7.50;;
21018;SDS011;10667;51.056;3.732;2023-09-30T02:54:59;20.83;;;8.02;;
21018;SDS011;10667;51.056;3.732;2023-09-30T02:57:25;18.45;;;7.65;;
21018;SDS011;10667;51.056;3.732;2023-09-30T02:59:52;18.45;;;8.13;;
21018;SDS011;10667;51.056;3.732;2023-09-30T03:02:19;23.95;;;7.88;;
21018;SDS011;10667;51.056;3.732;2023-09-30T03:04:46;14.32;;;7.32;;
21018;SDS011;10667;51.056;3.732;2023-09-30T03:07:13;20.55;;;7.45;;
21018;SDS011;10667;51.056;3.732;2023-09-30T03:09:39;15.25;;;7.57;;
21018;SDS011;10667;51.056;3.732;2023-09-30T03:12:05;20.92;;;7.70;;
21018;SDS011;10667;51.056;3.732;2023-09-30T03:14:31;22.77;;;8.77;;
21018;SDS011;10667;51.056;3.732;2023-09-30T03:16:57;23.85;;;7.93;;
21018;SDS011;10667;51.056;3.732;2023-09-30T03:19:24;15.60;;;7.90;;
21018;SDS011;10667;51.056;3.732;2023-09-30T03:21:50;16.77;;;7.45;;
21018;SDS011;10667;51.056;3.732;2023-09-30T03:24:15;20.52;;;7.60;;
21018;SDS011;10667;51.056;3.732;2023-09-30T03:26:41;19.23;;;7.80;;
21018;SDS011;10667;51.056;3.732;2023-09-30T03:29:07;18.52;;;7.82;;
21018;SDS011;10667;51.056;3.732;2023-09-30T03:31:37;17.48;;;7.68;;
21018;SDS011;10667;51.056;3.732;2023-09-30T03:34:03;27.63;;;8.85;;
21018;SDS011;10667;51.056;3.732;2023-09-30T03:36:29;23.95;;;8.48;;
21018;SDS011;10667;51.056;3.732;2023-09-30T03:38:55;21.55;;;7.35;;
21018;SDS011;10667;51.056;3.732;2023-09-30T03:41:21;19.88;;;7.60;;
21018;SDS011;10667;51.056;3.732;2023-09-30T03:43:48;20.08;;;7.85;;
21018;SDS011;10667;51.056;3.732;2023-09-30T03:46:14;19.75;;;8.27;;
21018;SDS011;10667;51.056;3.732;2023-09-30T03:48:40;25.60;;;8.70;;
21018;SDS011;10667;51.056;3.732;2023-09-30T03:51:11;21.10;;;8.63;;
21018;SDS011;10667;51.056;3.732;2023-09-30T03:53:43;24.20;;;8.73;;
21018;SDS011;10667;51.056;3.732;2023-09-30T03:56:10;32.50;;;9.77;;
21018;SDS011;10667;51.056;3.732;2023-09-30T03:58:42;21.13;;;8.57;;
21018;SDS011;10667;51.056;3.732;2023-09-30T04:01:09;19.50;;;7.63;;
21018;SDS011;10667;51.056;3.732;2023-09-30T04:03:36;24.63;;;8.15;;
21018;SDS011;10667;51.056;3.732;2023-09-30T04:06:05;22.92;;;8.57;;
21018;SDS011;10667;51.056;3.732;2023-09-30T04:08:34;21.70;;;8.80;;
21018;SDS011;10667;51.056;3.732;2023-09-30T04:11:00;23.20;;;8.75;;
21018;SDS011;10667;51.056;3.732;2023-09-30T04:13:28;18.70;;;8.70;;
21018;SDS011;10667;51.056;3.732;2023-09-30T04:15:54;20.70;;;7.97;;
21018;SDS011;10667;51.056;3.732;2023-09-30T04:18:20;17.10;;;7.88;;
21018;SDS011;10667;51.056;3.732;2023-09-30T04:20:47;22.05;;;8.15;;
21018;SDS011;10667;51.056;3.732;2023-09-30T04:23:13;19.17;;;8.10;;
21018;SDS011;10667;51.056;3.732;2023-09-30T04:25:40;18.85;;;7.82;;
21018;SDS011;10667;51.056;3.732;2023-09-30T04:28:06;26.48;;;8.68;;
21018;SDS011;10667;51.056;3.732;2023-09-30T04:30:34;21.85;;;8.95;;
21018;SDS011;10667;51.056;3.732;2023-09-30T04:33:00;17.65;;;7.88;;
21018;SDS011;10667;51.056;3.732;2023-09-30T04:35:29;26.40;;;9.10;;
21018;SDS011;10667;51.056;3.732;2023-09-30T04:37:55;23.95;;;9.20;;
21018;SDS011;10667;51.056;3.732;2023-09-30T04:40:26;28.88;;;9.70;;
21018;SDS011;10667;51.056;3.732;2023-09-30T04:42:51;21.20;;;8.88;;
21018;SDS011;10667;51.056;3.732;2023-09-30T04:45:20;23.63;;;9.52;;
21018;SDS011;10667;51.056;3.732;2023-09-30T04:47:46;24.65;;;9.02;;
21018;SDS011;10667;51.056;3.732;2023-09-30T04:50:14;25.23;;;8.88;;
21018;SDS011;10667;51.056;3.732;2023-09-30T04:52:40;20.98;;;7.80;;
21018;SDS011;10667;51.056;3.732;2023-09-30T04:55:06;21.08;;;8.38;;
21018;SDS011;10667;51.056;3.732;2023-09-30T04:57:31;34.35;;;9.55;;
21018;SDS011;10667;51.056;3.732;2023-09-30T04:59:57;24.52;;;8.68;;
21018;SDS011;10667;51.056;3.732;2023-09-30T05:02:27;22.08;;;9.02;;
21018;SDS011;10667;51.056;3.732;2023-09-30T05:04:52;26.02;;;8.88;;
21018;SDS011;10667;51.056;3.732;2023-09-30T05:07:19;19.67;;;8.85;;
21018;SDS011;10667;51.056;3.732;2023-09-30T05:09:47;25.38;;;9.93;;
21018;SDS011;10667;51.056;3.732;2023-09-30T05:12:12;26.60;;;9.77;;
21018;SDS011;10667;51.056;3.732;2023-09-30T05:14:38;27.02;;;10.43;;
21018;SDS011;10667;51.056;3.732;2023-09-30T05:17:04;24.52;;;9.20;;
21018;SDS011;10667;51.056;3.732;2023-09-30T05:19:30;22.38;;;10.32;;
21018;SDS011;10667;51.056;3.732;2023-09-30T05:22:01;22.52;;;9.73;;
21018;SDS011;10667;51.056;3.732;2023-09-30T05:24:28;19.98;;;9.45;;
21018;SDS011;10667;51.056;3.732;2023-09-30T05:26:53;25.70;;;9.85;;
21018;SDS011;10667;51.056;3.732;2023-09-30T05:29:19;23.05;;;9.30;;
21018;SDS011;10667;51.056;3.732;2023-09-30T05:31:45;26.83;;;10.85;;
21018;SDS011;10667;51.056;3.732;2023-09-30T05:34:11;22.45;;;9.77;;
21018;SDS011;10667;51.056;3.732;2023-09-30T05:36:36;27.65;;;10.70;;
21018;SDS011;10667;51.056;3.732;2023-09-30T05:39:02;26.48;;;10.05;;
21018;SDS011;10667;51.056;3.732;2023-09-30T05:41:29;25.02;;;9.55;;
21018;SDS011;10667;51.056;3.732;2023-09-30T05:43:55;19.55;;;10.77;;
21018;SDS011;10667;51.056;3.732;2023-09-30T05:46:21;23.42;;;10.05;;
21018;SDS011;10667;51.056;3.732;2023-09-30T05:48:47;24.13;;;9.60;;
21018;SDS011;10667;51.056;3.732;2023-09-30T05:51:12;18.67;;;9.00;;
21018;SDS011;10667;51.056;3.732;2023-09-30T05:53:41;26.20;;;10.23;;
21018;SDS011;10667;51.056;3.732;2023-09-30T05:56:07;26.20;;;9.70;;
21018;SDS011;10667;51.056;3.732;2023-09-30T05:58:44;27.90;;;9.95;;
21018;SDS011;10667;51.056;3.732;2023-09-30T06:01:09;27.10;;;9.90;;
21018;SDS011;10667;51.056;3.732;2023-09-30T06:03:40;25.63;;;9.48;;
21018;SDS011;10667;51.056;3.732;2023-09-30T06:06:13;27.90;;;9.43;;
21018;SDS011;10667;51.056;3.732;2023-09-30T06:08:40;32.38;;;10.82;;
21018;SDS011;10667;51.056;3.732;2023-09-30T06:11:15;24.35;;;9.90;;
21018;SDS011;10667;51.056;3.732;2023-09-30T06:13:48;24.25;;;9.73;;
21018;SDS011;10667;51.056;3.732;2023-09-30T06:16:14;25.02;;;10.40;;
21018;SDS011;10667;51.056;3.732;2023-09-30T06:18:41;23.92;;;9.63;;
21018;SDS011;10667;51.056;3.732;2023-09-30T06:21:12;19.08;;;9.00;;
21018;SDS011;10667;51.056;3.732;2023-09-30T06:23:43;22.98;;;9.13;;
21018;SDS011;10667;51.056;3.732;2023-09-30T06:26:11;27.67;;;9.68;;
21018;SDS011;10667;51.056;3.732;2023-09-30T06:28:40;18.85;;;9.07;;
21018;SDS011;10667;51.056;3.732;2023-09-30T06:31:11;19.30;;;8.18;;
21018;SDS011;10667;51.056;3.732;2023-09-30T06:36:34;21.45;;;8.60;;
21018;SDS011;10667;51.056;3.732;2023-09-30T06:42:42;24.42;;;9.55;;
21018;SDS011;10667;51.056;3.732;2023-09-30T06:45:14;27.58;;;10.65;;
21018;SDS011;10667;51.056;3.732;2023-09-30T06:47:49;26.38;;;10.18;;
21018;SDS011;10667;51.056;3.732;2023-09-30T06:50:17;24.42;;;9.85;;
21018;SDS011;10667;51.056;3.732;2023-09-30T06:53:03;22.73;;;9.35;;
21018;SDS011;10667;51.056;3.732;2023-09-30T06:55:32;28.35;;;10.52;;
21018;SDS011;10667;51.056;3.732;2023-09-30T06:57:58;23.85;;;9.10;;
21018;SDS011;10667;51.056;3.732;2023-09-30T07:00:24;20.40;;;9.02;;
21018;SDS011;10667;51.056;3.732;2023-09-30T07:02:59;26.80;;;10.10;;
21018;SDS011;10667;51.056;3.732;2023-09-30T07:05:28;26.42;;;10.07;;
21018;SDS011;10667;51.056;3.732;2023-09-30T07:07:54;23.20;;;9.57;;
21018;SDS011;10667;51.056;3.732;2023-09-30T07:10:20;33.20;;;10.18;;
21018;SDS011;10667;51.056;3.732;2023-09-30T07:12:46;19.95;;;8.85;;
21018;SDS011;10667;51.056;3.732;2023-09-30T07:15:12;22.58;;;9.55;;
21018;SDS011;10667;51.056;3.732;2023-09-30T07:17:41;25.73;;;9.18;;
21018;SDS011;10667;51.056;3.732;2023-09-30T07:20:08;20.98;;;9.10;;
21018;SDS011;10667;51.056;3.732;2023-09-30T07:22:35;21.73;;;8.95;;
21018;SDS011;10667;51.056;3.732;2023-09-30T07:25:01;26.48;;;10.30;;
21018;SDS011;10667;51.056;3.732;2023-09-30T07:27:37;25.40;;;8.85;;
21018;SDS011;10667;51.056;3.732;2023-09-30T07:30:13;24.73;;;9.35;;
21018;SDS011;10667;51.056;3.732;2023-09-30T07:32:54;25.65;;;9.18;;
21018;SDS011;10667;51.056;3.732;2023-09-30T07:35:37;24.30;;;9.52;;
21018;SDS011;10667;51.056;3.732;2023-09-30T07:40:53;33.63;;;9.07;;
21018;SDS011;10667;51.056;3.732;2023-09-30T07:43:32;21.33;;;9.38;;
21018;SDS011;10667;51.056;3.732;2023-09-30T07:46:23;24.17;;;8.50;;
21018;SDS011;10667;51.056;3.732;2023-09-30T07:49:02;25.10;;;9.10;;
21018;SDS011;10667;51.056;3.732;2023-09-30T07:51:40;27.27;;;9.45;;
21018;SDS011;10667;51.056;3.732;2023-09-30T07:54:06;25.10;;;8.65;;
21018;SDS011;10667;51.056;3.732;2023-09-30T07:56:34;21.83;;;9.15;;
21018;SDS011;10667;51.056;3.732;2023-09-30T07:59:03;25.33;;;8.77;;
21018;SDS011;10667;51.056;3.732;2023-09-30T08:01:37;31.52;;;9.55;;
21018;SDS011;10667;51.056;3.732;2023-09-30T08:04:15;25.38;;;9.60;;
21018;SDS011;10667;51.056;3.732;2023-09-30T08:06:41;23.38;;;9.00;;
21018;SDS011;10667;51.056;3.732;2023-09-30T08:09:07;31.42;;;9.48;;
21018;SDS011;10667;51.056;3.732;2023-09-30T08:11:36;28.67;;;10.27;;
21018;SDS011;10667;51.056;3.732;2023-09-30T08:14:05;39.03;;;11.50;;
21018;SDS011;10667;51.056;3.732;2023-09-30T08:16:38;30.00;;;10.77;;
21018;SDS011;10667;51.056;3.732;2023-09-30T08:19:04;36.85;;;11.88;;
21018;SDS011;10667;51.056;3.732;2023-09-30T08:21:30;36.10;;;12.55;;
21018;SDS011;10667;51.056;3.732;2023-09-30T08:23:56;33.50;;;12.05;;
21018;SDS011;10667;51.056;3.732;2023-09-30T08:26:22;40.53;;;15.50;;
21018;SDS011;10667;51.056;3.732;2023-09-30T08:28:48;45.55;;;16.55;;
21018;SDS011;10667;51.056;3.732;2023-09-30T08:31:13;49.28;;;15.80;;
21018;SDS011;10667;51.056;3.732;2023-09-30T08:33:39;45.60;;;14.70;;
21018;SDS011;10667;51.056;3.732;2023-09-30T08:36:08;39.22;;;15.13;;
21018;SDS011;10667;51.056;3.732;2023-09-30T08:38:35;36.38;;;15.38;;
21018;SDS011;10667;51.056;3.732;2023-09-30T08:41:01;37.42;;;15.95;;
21018;SDS011;10667;51.056;3.732;2023-09-30T08:43:27;34.03;;;15.95;;
21018;SDS011;10667;51.056;3.732;2023-09-30T08:45:55;42.10;;;16.13;;
21018;SDS011;10667;51.056;3.732;2023-09-30T08:48:22;39.25;;;16.55;;
21018;SDS011;10667;51.056;3.732;2023-09-30T08:50:49;45.63;;;16.98;;
21018;SDS011;10667;51.056;3.732;2023-09-30T08:53:17;42.70;;;16.58;;
21018;SDS011;10667;51.056;3.732;2023-09-30T08:55:46;39.03;;;16.45;;
21018;SDS011;10667;51.056;3.732;2023-09-30T08:58:13;34.90;;;16.52;;
21018;SDS011;10667;51.056;3.732;2023-09-30T09:00:39;36.70;;;15.55;;
21018;SDS011;10667;51.056;3.732;2023-09-30T09:03:06;40.20;;;16.33;;
21018;SDS011;10667;51.056;3.732;2023-09-30T09:05:32;39.47;;;16.75;;
21018;SDS011;10667;51.056;3.732;2023-09-30T09:07:58;35.03;;;14.95;;
21018;SDS011;10667;51.056;3.732;2023-09-30T09:10:24;37.38;;;16.88;;
21018;SDS011;10667;51.056;3.732;2023-09-30T09:12:56;40.92;;;16.20;;
21018;SDS011;10667;51.056;3.732;2023-09-30T09:15:24;32.65;;;15.48;;
21018;SDS011;10667;51.056;3.732;2023-09-30T09:17:51;35.75;;;15.02;;
21018;SDS011;10667;51.056;3.732;2023-09-30T09:20:20;32.30;;;15.77;;
21018;SDS011;10667;51.056;3.732;2023-09-30T09:22:48;31.98;;;14.93;;
21018;SDS011;10667;51.056;3.732;2023-09-30T09:25:17;35.40;;;15.27;;
21018;SDS011;10667;51.056;3.732;2023-09-30T09:27:43;37.53;;;15.63;;
21018;SDS011;10667;51.056;3.732;2023-09-30T09:30:22;28.20;;;14.27;;
21018;SDS011;10667;51.056;3.732;2023-09-30T09:35:33;34.55;;;15.13;;
21018;SDS011;10667;51.056;3.732;2023-09-30T09:40:30;35.47;;;13.20;;
21018;SDS011;10667;51.056;3.732;2023-09-30T09:42:58;29.58;;;12.82;;
21018;SDS011;10667;51.056;3.732;2023-09-30T09:45:25;42.83;;;14.85;;
21018;SDS011;10667;51.056;3.732;2023-09-30T09:47:52;31.95;;;13.05;;
21018;SDS011;10667;51.056;3.732;2023-09-30T09:50:19;33.00;;;12.00;;
21018;SDS011;10667;51.056;3.732;2023-09-30T09:52:50;28.92;;;11.05;;
21018;SDS011;10667;51.056;3.732;2023-09-30T09:55:17;28.35;;;11.23;;
21018;SDS011;10667;51.056;3.732;2023-09-30T09:57:44;34.40;;;11.27;;
21018;SDS011;10667;51.056;3.732;2023-09-30T10:00:15;31.23;;;10.88;;
21018;SDS011;10667;51.056;3.732;2023-09-30T10:02:44;28.75;;;10.07;;
21018;SDS011;10667;51.056;3.732;2023-09-30T10:05:14;26.77;;;9.73;;
21018;SDS011;10667;51.056;3.732;2023-09-30T10:07:45;25.00;;;10.55;;
21018;SDS011;10667;51.056;3.732;2023-09-30T10:10:35;26.65;;;10.27;;
21018;SDS011;10667;51.056;3.732;2023-09-30T10:13:02;27.00;;;11.25;;
21018;SDS011;10667;51.056;3.732;2023-09-30T10:17:56;29.20;;;11.30;;
21018;SDS011;10667;51.056;3.732;2023-09-30T10:20:33;33.58;;;10.25;;
21018;SDS011;10667;51.056;3.732;2023-09-30T10:26:36;22.98;;;8.63;;
21018;SDS011;10667;51.056;3.732;2023-09-30T10:28:40;30.50;;;9.60;;
21018;SDS011;10667;51.056;3.732;2023-09-30T10:31:28;23.00;;;9.70;;
21018;SDS011;10667;51.056;3.732;2023-09-30T10:38:58;17.52;;;6.68;;
21018;SDS011;10667;51.056;3.732;2023-09-30T10:46:47;17.75;;;6.05;;
21018;SDS011;10667;51.056;3.732;2023-09-30T10:49:14;19.02;;;5.95;;
21018;SDS011;10667;51.056;3.732;2023-09-30T10:51:42;25.60;;;6.88;;
21018;SDS011;10667;51.056;3.732;2023-09-30T10:54:09;21.80;;;6.10;;
21018;SDS011;10667;51.056;3.732;2023-09-30T10:56:38;21.90;;;6.20;;
21018;SDS011;10667;51.056;3.732;2023-09-30T10:59:03;16.40;;;5.15;;
21018;SDS011;10667;51.056;3.732;2023-09-30T11:01:33;17.42;;;6.60;;
21018;SDS011;10667;51.056;3.732;2023-09-30T11:03:59;23.85;;;6.80;;
21018;SDS011;10667;51.056;3.732;2023-09-30T11:06:29;18.45;;;5.85;;
21018;SDS011;10667;51.056;3.732;2023-09-30T11:08:56;20.02;;;5.70;;
21018;SDS011;10667;51.056;3.732;2023-09-30T11:11:36;18.27;;;5.40;;
21018;SDS011;10667;51.056;3.732;2023-09-30T11:14:17;17.27;;;6.40;;
21018;SDS011;10667;51.056;3.732;2023-09-30T11:16:46;21.02;;;6.38;;
21018;SDS011;10667;51.056;3.732;2023-09-30T11:19:13;21.45;;;5.90;;
21018;SDS011;10667;51.056;3.732;2023-09-30T11:21:42;13.32;;;5.50;;
21018;SDS011;10667;51.056;3.732;2023-09-30T11:24:09;21.25;;;5.70;;
21018;SDS011;10667;51.056;3.732;2023-09-30T11:26:36;17.77;;;5.70;;
21018;SDS011;10667;51.056;3.732;2023-09-30T11:29:06;16.70;;;4.78;;
21018;SDS011;10667;51.056;3.732;2023-09-30T11:31:36;21.38;;;6.05;;
21018;SDS011;10667;51.056;3.732;2023-09-30T11:34:06;18.95;;;5.88;;
21018;SDS011;10667;51.056;3.732;2023-09-30T11:36:36;15.55;;;5.65;;
21018;SDS011;10667;51.056;3.732;2023-09-30T11:39:03;18.83;;;5.05;;
21018;SDS011;10667;51.056;3.732;2023-09-30T11:41:33;15.43;;;4.72;;
21018;SDS011;10667;51.056;3.732;2023-09-30T11:44:07;17.02;;;4.70;;
21018;SDS011;10667;51.056;3.732;2023-09-30T11:52:01;16.05;;;4.40;;
21018;SDS011;10667;51.056;3.732;2023-09-30T11:54:35;12.48;;;3.80;;
21018;SDS011;10667;51.056;3.732;2023-09-30T11:57:12;14.13;;;4.47;;
21018;SDS011;10667;51.056;3.732;2023-09-30T11:59:42;12.52;;;3.45;;
21018;SDS011;10667;51.056;3.732;2023-09-30T12:02:12;13.80;;;4.00;;
21018;SDS011;10667;51.056;3.732;2023-09-30T12:04:45;10.10;;;3.20;;
21018;SDS011;10667;51.056;3.732;2023-09-30T12:07:14;14.55;;;3.72;;
21018;SDS011;10667;51.056;3.732;2023-09-30T12:09:40;15.20;;;3.75;;
21018;SDS011;10667;51.056;3.732;2023-09-30T12:12:06;13.57;;;4.22;;
21018;SDS011;10667;51.056;3.732;2023-09-30T12:14:35;15.23;;;4.30;;
21018;SDS011;10667;51.056;3.732;2023-09-30T12:17:01;11.73;;;3.67;;
21018;SDS011;10667;51.056;3.732;2023-09-30T12:19:27;12.07;;;3.75;;
21018;SDS011;10667;51.056;3.732;2023-09-30T12:21:52;9.65;;;3.50;;
21018;SDS011;10667;51.056;3.732;2023-09-30T12:24:21;9.70;;;3.10;;
21018;SDS011;10667;51.056;3.732;2023-09-30T12:26:49;12.30;;;3.22;;
21018;SDS011;10667;51.056;3.732;2023-09-30T12:29:16;11.90;;;3.47;;
21018;SDS011;10667;51.056;3.732;2023-09-30T12:31:46;10.85;;;3.15;;
21018;SDS011;10667;51.056;3.732;2023-09-30T12:34:13;12.00;;;3.95;;
21018;SDS011;10667;51.056;3.732;2023-09-30T12:36:39;8.57;;;3.03;;
21018;SDS011;10667;51.056;3.732;2023-09-30T12:39:06;12.23;;;3.60;;
21018;SDS011;10667;51.056;3.732;2023-09-30T12:41:39;13.52;;;3.40;;
21018;SDS011;10667;51.056;3.732;2023-09-30T12:44:06;10.18;;;3.33;;
21018;SDS011;10667;51.056;3.732;2023-09-30T12:46:32;7.78;;;3.15;;
21018;SDS011;10667;51.056;3.732;2023-09-30T12:49:02;10.23;;;3.08;;
21018;SDS011;10667;51.056;3.732;2023-09-30T12:51:28;12.43;;;3.40;;
21018;SDS011;10667;51.056;3.732;2023-09-30T12:53:54;14.25;;;3.55;;
21018;SDS011;10667;51.056;3.732;2023-09-30T12:56:20;10.10;;;3.40;;
21018;SDS011;10667;51.056;3.732;2023-09-30T12:58:46;9.73;;;2.92;;
21018;SDS011;10667;51.056;3.732;2023-09-30T13:01:12;11.93;;;3.22;;
21018;SDS011;10667;51.056;3.732;2023-09-30T13:03:38;11.40;;;3.38;;
21018;SDS011;10667;51.056;3.732;2023-09-30T13:06:04;10.05;;;3.55;;
21018;SDS011;10667;51.056;3.732;2023-09-30T13:08:29;15.98;;;4.35;;
21018;SDS011;10667;51.056;3.732;2023-09-30T13:10:59;9.43;;;3.50;;
21018;SDS011;10667;51.056;3.732;2023-09-30T13:13:27;8.95;;;3.33;;
21018;SDS011;10667;51.056;3.732;2023-09-30T13:15:55;12.48;;;3.58;;
21018;SDS011;10667;51.056;3.732;2023-09-30T13:18:22;12.55;;;3.25;;
21018;SDS011;10667;51.056;3.732;2023-09-30T13:20:48;10.60;;;3.03;;
21018;SDS011;10667;51.056;3.732;2023-09-30T13:23:14;10.23;;;3.05;;
21018;SDS011;10667;51.056;3.732;2023-09-30T13:25:39;10.45;;;3.05;;
21018;SDS011;10667;51.056;3.732;2023-09-30T13:28:05;10.43;;;2.88;;
21018;SDS011;10667;51.056;3.732;2023-09-30T13:30:31;8.55;;;2.83;;
21018;SDS011;10667;51.056;3.732;2023-09-30T13:32:57;10.60;;;3.45;;
21018;SDS011;10667;51.056;3.732;2023-09-30T13:35:22;9.48;;;2.75;;
21018;SDS011;10667;51.056;3.732;2023-09-30T13:37:48;12.75;;;3.28;;
21018;SDS011;10667;51.056;3.732;2023-09-30T13:40:14;11.95;;;3.40;;
21018;SDS011;10667;51.056;3.732;2023-09-30T13:42:40;10.95;;;3.83;;
21018;SDS011;10667;51.056;3.732;2023-09-30T13:45:07;10.23;;;3.15;;
21018;SDS011;10667;51.056;3.732;2023-09-30T13:47:34;11.15;;;3.05;;
21018;SDS011;10667;51.056;3.732;2023-09-30T13:50:00;8.25;;;2.65;;
21018;SDS011;10667;51.056;3.732;2023-09-30T13:52:28;11.55;;;3.25;;
21018;SDS011;10667;51.056;3.732;2023-09-30T13:54:54;13.27;;;3.03;;
21018;SDS011;10667;51.056;3.732;2023-09-30T13:57:20;12.20;;;3.35;;
21018;SDS011;10667;51.056;3.732;2023-09-30T13:59:46;9.30;;;3.20;;
21018;SDS011;10667;51.056;3.732;2023-09-30T14:02:12;9.73;;;2.65;;
21018;SDS011;10667;51.056;3.732;2023-09-30T14:04:38;12.05;;;2.92;;
21018;SDS011;10667;51.056;3.732;2023-09-30T14:07:03;8.52;;;2.97;;
21018;SDS011;10667;51.056;3.732;2023-09-30T14:09:33;12.20;;;3.13;;
21018;SDS011;10667;51.056;3.732;2023-09-30T14:11:59;9.23;;;2.80;;
21018;SDS011;10667;51.056;3.732;2023-09-30T14:14:25;7.97;;;2.72;;
21018;SDS011;10667;51.056;3.732;2023-09-30T14:16:51;8.48;;;2.80;;
21018;SDS011;10667;51.056;3.732;2023-09-30T14:19:17;10.43;;;3.03;;
21018;SDS011;10667;51.056;3.732;2023-09-30T14:21:43;11.65;;;3.00;;
21018;SDS011;10667;51.056;3.732;2023-09-30T14:24:10;12.15;;;3.38;;
21018;SDS011;10667;51.056;3.732;2023-09-30T14:26:36;9.93;;;2.80;;
21018;SDS011;10667;51.056;3.732;2023-09-30T14:29:02;10.63;;;3.17;;
21018;SDS011;10667;51.056;3.732;2023-09-30T14:31:28;12.65;;;3.28;;
21018;SDS011;10667;51.056;3.732;2023-09-30T14:33:54;9.50;;;3.22;;
21018;SDS011;10667;51.056;3.732;2023-09-30T14:36:20;12.75;;;2.92;;
21018;SDS011;10667;51.056;3.732;2023-09-30T14:38:47;12.27;;;3.25;;
21018;SDS011;10667;51.056;3.732;2023-09-30T14:41:14;10.77;;;3.40;;
21018;SDS011;10667;51.056;3.732;2023-09-30T14:43:41;10.43;;;3.63;;
21018;SDS011;10667;51.056;3.732;2023-09-30T14:46:07;14.52;;;3.92;;
21018;SDS011;10667;51.056;3.732;2023-09-30T14:48:35;11.35;;;2.85;;
21018;SDS011;10667;51.056;3.732;2023-09-30T14:51:01;24.65;;;3.70;;
21018;SDS011;10667;51.056;3.732;2023-09-30T14:53:29;8.60;;;3.15;;
21018;SDS011;10667;51.056;3.732;2023-09-30T14:55:56;10.68;;;2.90;;
21018;SDS011;10667;51.056;3.732;2023-09-30T14:58:21;10.57;;;3.42;;
21018;SDS011;10667;51.056;3.732;2023-09-30T15:00:47;14.85;;;3.03;;
21018;SDS011;10667;51.056;3.732;2023-09-30T15:03:13;9.05;;;2.85;;
21018;SDS011;10667;51.056;3.732;2023-09-30T15:05:38;6.30;;;2.35;;
21018;SDS011;10667;51.056;3.732;2023-09-30T15:08:04;10.07;;;3.05;;
21018;SDS011;10667;51.056;3.732;2023-09-30T15:10:30;10.57;;;2.67;;
21018;SDS011;10667;51.056;3.732;2023-09-30T15:12:55;8.77;;;2.80;;